Time;durP1;ratioP1;P1;durP2;ratioP2;P2;SDS_P1;SDS_P2;PMS_P1;PMS_P2;Temp;Humidity;BMP_temperature;BMP_pressure;BME280_temperature;BME280_humidity;BME280_pressure;Samples;Min_cycle;Max_cycle;Signal;HPM_P1;HPM_P2
2022/05/01 00:00:40;;;;;;;8.57;7.77;;;15.00;73.00;15.50;96780.00;;;;5036864;28;20200;-81
2022/05/01 00:03:08;;;;;;;9.17;8.37;;;15.00;73.00;15.50;96779.00;;;;5037360;28;20208;-81
2022/05/01 00:05:35;;;;;;;8.77;8.00;;;15.00;73.00;15.40;96779.00;;;;5035750;28;20224;-81
2022/05/01 00:08:04;;;;;;;9.30;8.37;;;15.00;73.00;15.40;96779.00;;;;5047223;28;20248;-81
2022/05/01 00:10:32;;;;;;;9.93;9.03;;;15.00;73.10;15.40;96777.00;;;;5056027;28;20203;-81
2022/05/01 00:12:59;;;;;;;9.13;8.40;;;15.00;73.20;15.40;96780.00;;;;5055416;28;20197;-82
2022/05/01 00:15:27;;;;;;;9.83;8.93;;;15.00;73.20;15.40;96780.00;;;;5053057;28;20216;-82
2022/05/01 00:17:54;;;;;;;9.47;8.67;;;15.00;73.20;15.40;96783.00;;;;5051030;28;20215;-81
2022/05/01 00:20:22;;;;;;;9.67;8.73;;;15.00;73.20;15.40;96775.00;;;;5055201;28;20201;-80
2022/05/01 00:22:49;;;;;;;9.53;8.70;;;15.00;73.20;15.40;96777.00;;;;5042589;28;20224;-82
2022/05/01 00:25:15;;;;;;;9.30;8.50;;;15.00;73.50;15.40;96775.00;;;;5052833;28;20217;-82
2022/05/01 00:27:44;;;;;;;9.97;9.07;;;15.00;73.40;15.40;96781.00;;;;5041987;28;20224;-81
2022/05/01 00:30:13;;;;;;;9.77;8.87;;;14.90;73.40;15.40;96779.00;;;;5055249;28;20197;-82
2022/05/01 00:38:10;;;;;;;9.30;8.40;;;14.90;73.50;15.30;96779.00;;;;5042627;28;20231;-82
2022/05/01 00:40:37;;;;;;;10.40;9.40;;;14.90;73.60;15.30;96775.00;;;;5043449;28;20659;-82
2022/05/01 00:43:06;;;;;;;9.13;8.33;;;14.90;73.60;15.30;96773.00;;;;5041626;28;20201;-82
2022/05/01 00:45:34;;;;;;;10.57;9.57;;;14.90;73.80;15.30;96765.00;;;;5045822;28;20295;-82
2022/05/01 00:48:01;;;;;;;10.10;9.23;;;14.90;73.80;15.30;96776.00;;;;5054711;28;20266;-82
2022/05/01 00:50:28;;;;;;;10.23;9.33;;;14.90;73.90;15.30;96776.00;;;;5061423;28;20189;-81
2022/05/01 00:52:55;;;;;;;11.40;10.17;;;14.90;73.70;15.30;96773.00;;;;5057042;28;20203;-82
2022/05/01 00:55:22;;;;;;;10.70;9.63;;;14.90;73.60;15.30;96772.00;;;;5060075;28;20220;-81
2022/05/01 00:57:50;;;;;;;10.87;9.87;;;14.90;73.60;15.30;96782.00;;;;5048874;28;20196;-82
2022/05/01 01:00:19;;;;;;;10.43;9.53;;;14.80;73.60;15.30;96776.00;;;;5050077;28;20201;-81
2022/05/01 01:02:47;;;;;;;10.60;9.60;;;14.80;73.80;15.30;96775.00;;;;5047738;28;20197;-81
2022/05/01 01:05:14;;;;;;;10.80;9.77;;;14.80;73.70;15.30;96774.00;;;;5051102;28;20217;-81
2022/05/01 01:07:43;;;;;;;10.03;9.20;;;14.80;73.80;15.30;96776.00;;;;5055471;28;20230;-82
2022/05/01 01:10:11;;;;;;;10.83;9.83;;;14.80;73.80;15.30;96772.00;;;;5048140;28;20573;-81
2022/05/01 01:12:57;;;;;;;10.67;9.57;;;14.80;74.00;15.30;96776.00;;;;5046208;28;20229;-81
2022/05/01 01:15:28;;;;;;;10.37;9.30;;;14.80;74.10;15.30;96774.00;;;;5039861;28;20213;-81
2022/05/01 01:17:57;;;;;;;10.93;9.93;;;14.80;74.10;15.30;96776.00;;;;5051974;28;20197;-81
2022/05/01 01:20:29;;;;;;;10.50;9.40;;;14.80;74.80;15.30;96771.00;;;;5071160;22;20227;-87
2022/05/01 01:22:59;;;;;;;9.70;8.87;;;14.80;74.10;15.30;96772.00;;;;5050554;28;20223;-86
2022/05/01 01:25:30;;;;;;;10.00;9.10;;;14.80;74.20;15.30;96774.00;;;;5054285;28;20263;-86
2022/05/01 01:28:02;;;;;;;10.87;9.83;;;14.80;74.20;15.30;96777.00;;;;5052529;28;20211;-86
2022/05/01 01:33:15;;;;;;;10.33;9.23;;;14.80;74.20;15.30;96771.00;;;;5035926;28;20205;-86
2022/05/01 01:35:46;;;;;;;9.93;8.97;;;14.80;74.10;15.20;96770.00;;;;5039308;28;20252;-86
2022/05/01 01:38:15;;;;;;;10.60;9.57;;;14.80;74.10;15.20;96767.00;;;;5044614;28;20197;-85
2022/05/01 01:40:48;;;;;;;10.00;9.10;;;14.80;74.50;15.20;96773.00;;;;5051455;28;20287;-85
2022/05/01 01:43:19;;;;;;;10.50;9.50;;;14.80;73.90;15.20;96767.00;;;;5038218;28;20227;-86
2022/05/01 01:45:47;;;;;;;10.33;9.43;;;14.80;74.00;15.20;96763.00;;;;5042487;28;20267;-85
2022/05/01 01:48:17;;;;;;;9.83;8.93;;;14.80;74.00;15.20;96768.00;;;;5054788;28;20236;-86
2022/05/01 01:50:54;;;;;;;9.87;8.97;;;14.80;74.20;15.20;96766.00;;;;5048200;28;20200;-85
2022/05/01 01:53:23;;;;;;;10.10;9.20;;;14.80;74.20;15.20;96760.00;;;;5054905;28;20221;-85
2022/05/01 01:55:50;;;;;;;9.97;9.07;;;14.80;74.20;15.20;96767.00;;;;5052515;28;20236;-86
2022/05/01 01:58:17;;;;;;;9.90;9.07;;;14.80;74.20;15.20;96771.00;;;;5047663;28;20717;-85
2022/05/01 02:00:44;;;;;;;9.93;9.03;;;14.70;74.30;15.20;96767.00;;;;5032404;28;20282;-86
2022/05/01 02:03:11;;;;;;;10.43;9.33;;;14.70;74.60;15.20;96760.00;;;;5032189;28;20285;-86
2022/05/01 02:05:39;;;;;;;10.37;9.43;;;14.70;74.70;15.20;96758.00;;;;5033220;28;20300;-86
2022/05/01 02:08:06;;;;;;;10.07;9.07;;;14.70;74.60;15.10;96765.00;;;;5046433;28;20295;-86
2022/05/01 02:10:36;;;;;;;9.40;8.60;;;14.70;74.50;15.10;96760.00;;;;5046771;28;20292;-86
2022/05/01 02:13:04;;;;;;;9.87;8.87;;;14.70;74.80;15.10;96765.00;;;;5049389;28;20185;-86
2022/05/01 02:15:32;;;;;;;9.90;9.00;;;14.70;74.60;15.10;96758.00;;;;5038210;28;20288;-87
2022/05/01 02:18:01;;;;;;;9.90;8.90;;;14.70;74.60;15.10;96756.00;;;;5042479;28;20279;-87
2022/05/01 02:21:33;;;;;;;9.97;9.03;;;14.70;74.70;15.10;96756.00;;;;5049422;28;20204;-87
2022/05/01 02:23:18;;;;;;;10.30;9.40;;;14.70;74.80;15.10;96761.00;;;;5050128;28;20200;-86
2022/05/01 02:25:47;;;;;;;9.90;8.97;;;14.70;75.50;15.10;96761.00;;;;5047314;28;20311;-86
2022/05/01 02:28:14;;;;;;;9.60;8.80;;;14.70;74.70;15.10;96755.00;;;;5052689;28;20219;-86
2022/05/01 02:30:42;;;;;;;9.93;9.13;;;14.70;74.70;15.10;96747.00;;;;5051863;28;20192;-86
2022/05/01 02:33:09;;;;;;;10.70;9.70;;;14.70;74.80;15.10;96754.00;;;;5035565;28;20201;-86
2022/05/01 02:35:36;;;;;;;10.20;9.10;;;14.70;74.80;15.10;96751.00;;;;5037356;28;20197;-86
2022/05/01 02:38:04;;;;;;;10.23;9.23;;;14.70;74.70;15.10;96749.00;;;;5052590;28;20279;-87
2022/05/01 02:40:33;;;;;;;9.67;8.77;;;14.70;74.70;15.10;96747.00;;;;5050818;28;20287;-89
2022/05/01 02:43:02;;;;;;;10.47;9.47;;;14.70;74.80;15.10;96749.00;;;;5045562;28;20641;-88
2022/05/01 02:45:30;;;;;;;10.23;9.33;;;14.70;74.60;15.10;96742.00;;;;5046812;28;20221;-87
2022/05/01 02:47:57;;;;;;;10.50;9.53;;;14.70;74.50;15.10;96743.00;;;;5042166;28;20681;-87
2022/05/01 02:50:25;;;;;;;10.17;9.17;;;14.70;74.50;15.10;96742.00;;;;5036912;28;20208;-87
2022/05/01 02:52:54;;;;;;;9.37;8.50;;;14.70;74.60;15.10;96735.00;;;;5050565;28;20914;-87
2022/05/01 02:55:21;;;;;;;10.47;9.47;;;14.60;74.70;15.10;96743.00;;;;5047001;28;20193;-88
2022/05/01 02:57:49;;;;;;;10.60;9.70;;;14.70;74.80;15.10;96744.00;;;;5041296;28;20276;-87
2022/05/01 03:00:20;;;;;;;11.27;10.17;;;14.70;75.00;15.10;96743.00;;;;5031845;28;20227;-87
2022/05/01 03:02:48;;;;;;;10.60;9.63;;;14.70;74.90;15.10;96733.00;;;;5043661;28;20204;-87
2022/05/01 03:05:17;;;;;;;11.07;10.07;;;14.70;74.70;15.10;96736.00;;;;5044234;28;20233;-87
2022/05/01 03:07:44;;;;;;;11.03;9.93;;;14.70;74.80;15.00;96741.00;;;;5049419;28;20259;-87
2022/05/01 03:10:12;;;;;;;10.13;9.13;;;14.70;74.70;15.00;96741.00;;;;5043092;28;20201;-87
2022/05/01 03:12:39;;;;;;;11.03;10.00;;;14.60;74.80;15.00;96739.00;;;;5040767;28;20203;-88
2022/05/01 03:15:08;;;;;;;10.67;9.67;;;14.60;75.00;15.00;96739.00;;;;5046348;28;20224;-88
2022/05/01 03:23:07;;;;;;;9.63;8.83;;;14.60;75.00;15.00;96727.00;;;;5045436;28;20230;-87
2022/05/01 03:25:34;;;;;;;10.73;9.73;;;14.60;74.90;15.00;96729.00;;;;5039907;28;20650;-88
2022/05/01 03:28:02;;;;;;;11.10;10.00;;;14.60;75.10;15.00;96726.00;;;;5045400;28;20252;-88
2022/05/01 03:30:29;;;;;;;11.10;10.00;;;14.70;75.20;15.00;96726.00;;;;5038342;28;20614;-88
2022/05/01 03:32:57;;;;;;;11.03;9.93;;;14.60;75.20;15.00;96724.00;;;;5032148;28;20650;-88
2022/05/01 03:35:25;;;;;;;11.50;10.40;;;14.60;75.20;15.00;96727.00;;;;5049757;28;20239;-88
2022/05/01 03:37:52;;;;;;;11.10;10.00;;;14.60;75.20;15.00;96723.00;;;;5050301;28;20292;-88
2022/05/01 03:40:19;;;;;;;12.30;10.93;;;14.60;75.20;15.00;96712.00;;;;5051275;28;20283;-87
2022/05/01 03:42:46;;;;;;;11.80;10.70;;;14.60;75.20;15.00;96721.00;;;;5039250;28;20204;-87
2022/05/01 03:45:13;;;;;;;11.53;10.33;;;14.60;75.10;15.00;96721.00;;;;5044776;28;20279;-88
2022/05/01 03:47:41;;;;;;;10.17;9.27;;;14.60;75.20;15.00;96719.00;;;;5049047;28;20224;-86
2022/05/01 03:50:10;;;;;;;11.97;10.77;;;14.60;76.00;15.00;96715.00;;;;5031253;28;20220;-86
2022/05/01 03:52:37;;;;;;;11.57;10.47;;;14.60;75.40;15.00;96722.00;;;;5032075;28;20259;-87
2022/05/01 03:55:07;;;;;;;11.77;10.67;;;14.60;75.30;15.00;96721.00;;;;5049973;28;20200;-87
2022/05/01 03:57:34;;;;;;;11.90;10.70;;;14.60;75.30;15.00;96716.00;;;;5039349;28;20303;-87
2022/05/01 04:00:01;;;;;;;11.93;10.73;;;14.60;75.20;15.00;96718.00;;;;5048455;28;20224;-87
2022/05/01 04:02:28;;;;;;;11.13;10.07;;;14.60;75.10;15.00;96716.00;;;;5037941;28;20193;-88
2022/05/01 04:04:57;;;;;;;11.27;10.17;;;14.60;75.20;15.00;96725.00;;;;5049594;28;20277;-87
2022/05/01 04:07:26;;;;;;;11.27;10.23;;;14.60;75.10;15.00;96721.00;;;;5048618;28;20224;-87
2022/05/01 04:09:53;;;;;;;11.80;10.70;;;14.60;75.10;15.00;96722.00;;;;5046454;28;20220;-87
2022/05/01 04:12:21;;;;;;;12.00;10.87;;;14.60;75.20;15.00;96726.00;;;;5049983;28;20197;-87
2022/05/01 04:14:48;;;;;;;11.70;10.53;;;14.60;75.90;15.00;96730.00;;;;5048748;28;20215;-87
2022/05/01 04:17:15;;;;;;;12.27;11.07;;;14.60;75.30;15.00;96725.00;;;;5044408;28;20217;-86
2022/05/01 04:19:43;;;;;;;12.00;10.80;;;14.60;75.30;15.00;96723.00;;;;5038719;28;20204;-87
2022/05/01 04:22:10;;;;;;;11.60;10.50;;;14.60;75.20;15.00;96730.00;;;;5033991;28;20186;-87
2022/05/01 04:24:38;;;;;;;12.37;11.10;;;14.60;75.00;15.00;96734.00;;;;5047407;28;20232;-87
2022/05/01 04:27:06;;;;;;;12.27;11.17;;;14.60;75.10;15.00;96734.00;;;;5048702;28;20572;-87
2022/05/01 04:29:40;;;;;;;12.63;11.43;;;14.60;75.20;15.00;96733.00;;;;5033135;28;20224;-87
2022/05/01 04:32:09;;;;;;;11.67;10.57;;;14.60;75.30;15.00;96739.00;;;;5041582;28;20224;-87
2022/05/01 04:34:37;;;;;;;12.23;11.03;;;14.60;75.20;15.00;96731.00;;;;5031874;28;20201;-87
2022/05/01 04:37:04;;;;;;;12.17;10.97;;;14.60;75.20;15.00;96740.00;;;;5049985;28;20247;-87
2022/05/01 04:39:32;;;;;;;11.97;10.87;;;14.60;75.30;15.00;96734.00;;;;5048700;28;20282;-87
2022/05/01 04:42:00;;;;;;;12.67;11.47;;;14.60;75.20;15.00;96736.00;;;;5031498;28;20272;-87
2022/05/01 04:44:27;;;;;;;12.03;10.90;;;14.60;75.10;15.00;96746.00;;;;5047281;28;20199;-88
2022/05/01 04:46:54;;;;;;;12.47;11.27;;;14.60;75.10;15.00;96736.00;;;;5028947;28;20224;-87
2022/05/01 04:49:22;;;;;;;13.23;11.83;;;14.70;75.20;15.00;96741.00;;;;5044356;28;20701;-87
2022/05/01 04:51:49;;;;;;;12.33;11.13;;;14.70;75.20;15.00;96736.00;;;;5049590;28;20197;-87
2022/05/01 04:54:17;;;;;;;12.70;11.50;;;14.70;75.20;15.00;96739.00;;;;5040893;28;20608;-87
2022/05/01 04:59:30;;;;;;;11.93;10.73;;;14.70;75.30;15.00;96742.00;;;;5046918;28;20231;-87
2022/05/01 05:01:58;;;;;;;12.07;10.87;;;14.60;75.20;15.00;96735.00;;;;5029683;28;20235;-88
2022/05/01 05:04:27;;;;;;;12.40;11.20;;;14.70;75.30;15.00;96746.00;;;;5033126;28;20197;-88
2022/05/01 05:06:54;;;;;;;12.20;11.07;;;14.70;75.30;15.00;96739.00;;;;5043799;28;20335;-86
2022/05/01 05:12:09;;;;;;;12.50;11.30;;;14.70;75.20;15.00;96746.00;;;;5033670;28;20203;-87
2022/05/01 05:14:37;;;;;;;12.33;11.00;;;14.70;75.10;15.10;96740.00;;;;5038763;28;20197;-87
2022/05/01 05:17:09;;;;;;;13.10;11.80;;;14.70;75.20;15.10;96745.00;;;;5034830;28;20213;-87
2022/05/01 05:19:37;;;;;;;13.40;12.10;;;14.70;75.00;15.10;96746.00;;;;5042388;28;20619;-87
2022/05/01 05:22:04;;;;;;;12.20;11.00;;;14.70;75.10;15.10;96756.00;;;;5043948;28;20208;-86
2022/05/01 05:24:32;;;;;;;12.80;11.50;;;14.70;75.20;15.10;96759.00;;;;5038704;28;20949;-87
2022/05/01 05:26:59;;;;;;;13.47;12.07;;;14.70;75.10;15.00;96757.00;;;;5049121;28;20649;-85
2022/05/01 05:29:26;;;;;;;13.23;11.83;;;14.70;75.80;15.00;96752.00;;;;5058320;28;20299;-83
2022/05/01 05:31:55;;;;;;;12.93;11.60;;;14.70;75.00;15.10;96757.00;;;;5058897;28;20287;-83
2022/05/01 05:34:22;;;;;;;13.00;11.70;;;14.70;75.10;15.10;96754.00;;;;5058463;28;20279;-81
2022/05/01 05:36:49;;;;;;;12.93;11.43;;;14.70;75.10;15.20;96756.00;;;;5058756;28;20255;-81
2022/05/01 05:39:16;;;;;;;11.63;10.53;;;14.70;75.10;15.20;96757.00;;;;5056823;28;20591;-82
2022/05/01 05:41:43;;;;;;;13.30;12.00;;;14.70;75.20;15.20;96765.00;;;;5053521;28;20211;-82
2022/05/01 05:44:11;;;;;;;13.13;11.87;;;14.70;75.20;15.20;96763.00;;;;5063159;28;20291;-81
2022/05/01 05:46:38;;;;;;;15.83;12.87;;;14.80;75.50;15.30;96767.00;;;;5065598;28;20236;-82
2022/05/01 05:49:07;;;;;;;14.93;12.80;;;14.80;75.50;15.30;96771.00;;;;5071011;28;20247;-82
2022/05/01 05:51:34;;;;;;;12.77;11.47;;;14.80;75.20;15.30;96772.00;;;;5059761;28;20254;-82
2022/05/01 05:54:01;;;;;;;14.90;12.93;;;14.80;75.20;15.30;96772.00;;;;5066396;28;20275;-82
2022/05/01 05:56:29;;;;;;;14.93;13.40;;;14.80;75.30;15.30;96772.00;;;;5061566;28;20324;-82
2022/05/01 05:58:56;;;;;;;14.33;12.73;;;14.80;75.20;15.30;96774.00;;;;5074773;28;20700;-82
2022/05/01 06:01:23;;;;;;;15.70;13.77;;;14.90;75.20;15.30;96774.00;;;;5068728;28;20587;-82
2022/05/01 06:03:50;;;;;;;15.53;13.60;;;14.80;75.00;15.40;96769.00;;;;5064840;28;20219;-83
2022/05/01 06:06:19;;;;;;;15.10;13.47;;;14.90;75.10;15.40;96772.00;;;;5057367;28;20240;-83
2022/05/01 06:08:46;;;;;;;17.20;14.67;;;14.90;75.10;15.40;96774.00;;;;5062099;28;20247;-82
2022/05/01 06:11:14;;;;;;;16.67;13.67;;;14.90;75.00;15.30;96772.00;;;;5058895;28;20197;-84
2022/05/01 06:13:41;;;;;;;15.67;14.07;;;14.90;74.80;15.30;96779.00;;;;5060270;28;20200;-83
2022/05/01 06:16:08;;;;;;;18.63;15.03;;;14.90;74.80;15.30;96785.00;;;;5059602;28;20904;-83
2022/05/01 06:18:35;;;;;;;16.73;14.33;;;14.90;74.80;15.30;96784.00;;;;5060665;28;20216;-84
2022/05/01 06:21:02;;;;;;;16.13;14.30;;;14.90;74.90;15.30;96781.00;;;;5069496;28;20258;-82
2022/05/01 06:23:31;;;;;;;16.27;14.40;;;14.90;74.90;15.40;96783.00;;;;5058808;28;20299;-82
2022/05/01 06:25:58;;;;;;;16.37;14.50;;;14.90;74.80;15.40;96777.00;;;;5064432;28;20710;-82
2022/05/01 06:28:25;;;;;;;16.97;14.90;;;15.00;75.00;15.40;96780.00;;;;5076044;28;20215;-82
2022/05/01 06:30:55;;;;;;;17.53;14.57;;;15.00;74.90;15.40;96780.00;;;;5075151;28;20283;-81
2022/05/01 06:33:23;;;;;;;17.40;15.33;;;14.90;74.90;15.50;96779.00;;;;5064003;28;20271;-83
2022/05/01 06:35:53;;;;;;;17.10;15.27;;;15.00;75.70;15.50;96783.00;;;;5064619;28;20307;-82
2022/05/01 06:38:21;;;;;;;16.97;15.10;;;15.00;74.90;15.50;96791.00;;;;5064676;28;20201;-82
2022/05/01 06:40:50;;;;;;;16.30;14.50;;;15.00;74.80;15.50;96794.00;;;;5067668;28;20227;-82
2022/05/01 06:43:19;;;;;;;19.17;14.13;;;15.00;74.90;15.50;96788.00;;;;5066406;28;20200;-81
2022/05/01 06:45:48;;;;;;;17.63;15.10;;;15.00;74.90;15.50;96791.00;;;;5063147;28;20715;-81
2022/05/01 06:48:15;;;;;;;16.40;14.63;;;15.10;74.80;15.50;96790.00;;;;5068378;28;20228;-81
2022/05/01 06:50:42;;;;;;;17.87;15.43;;;15.00;74.70;15.50;96794.00;;;;5074910;28;20189;-82
2022/05/01 06:53:09;;;;;;;17.17;15.23;;;15.00;74.80;15.50;96795.00;;;;5066220;28;20197;-82
2022/05/01 06:55:36;;;;;;;17.50;15.20;;;15.10;75.60;15.50;96801.00;;;;5066369;28;20200;-84
2022/05/01 06:58:05;;;;;;;17.27;14.87;;;15.10;74.90;15.50;96802.00;;;;5064895;28;20615;-84
2022/05/01 07:00:33;;;;;;;17.73;15.10;;;15.10;74.90;15.50;96800.00;;;;5078782;28;20196;-83
2022/05/01 07:03:00;;;;;;;17.43;14.93;;;15.10;74.80;15.60;96799.00;;;;5060835;28;20219;-83
2022/05/01 07:05:28;;;;;;;19.20;15.47;;;15.10;74.70;15.60;96802.00;;;;5062231;28;20216;-83
2022/05/01 07:07:55;;;;;;;17.53;14.73;;;15.10;74.70;15.60;96800.00;;;;5099443;22;20251;-88
2022/05/01 07:10:24;;;;;;;17.50;14.20;;;15.10;74.60;15.60;96799.00;;;;5069426;28;20258;-87
2022/05/01 07:12:51;;;;;;;17.50;15.63;;;15.10;74.70;15.60;96799.00;;;;5069923;28;20210;-88
2022/05/01 07:15:19;;;;;;;18.57;15.70;;;15.10;74.70;15.60;96796.00;;;;5070052;28;20188;-86
2022/05/01 07:17:46;;;;;;;19.10;15.70;;;15.10;74.80;15.60;96803.00;;;;5069500;28;20223;-86
2022/05/01 07:20:13;;;;;;;18.53;15.60;;;15.10;74.80;15.60;96800.00;;;;5081057;22;20229;-86
2022/05/01 07:22:41;;;;;;;18.37;15.33;;;15.10;75.00;15.60;96797.00;;;;5040948;28;20274;-86
2022/05/01 07:25:09;;;;;;;18.43;15.37;;;15.10;75.00;15.60;96803.00;;;;5035992;28;20192;-86
2022/05/01 07:27:36;;;;;;;18.63;15.40;;;15.10;75.10;15.70;96799.00;;;;5044897;28;20236;-85
2022/05/01 07:30:04;;;;;;;21.00;16.47;;;15.20;75.00;15.70;96801.00;;;;5044273;28;20226;-82
2022/05/01 07:32:32;;;;;;;18.40;15.87;;;15.20;74.80;15.70;96802.00;;;;5040622;28;20689;-82
2022/05/01 07:35:01;;;;;;;19.27;16.23;;;15.20;74.90;15.70;96795.00;;;;5018343;28;20201;-82
2022/05/01 07:37:29;;;;;;;20.60;16.37;;;15.20;74.90;15.80;96802.00;;;;5041610;28;20255;-83
2022/05/01 07:39:56;;;;;;;18.00;15.50;;;15.10;74.90;15.80;96803.00;;;;5042815;28;20200;-82
2022/05/01 07:42:24;;;;;;;20.73;16.03;;;15.20;74.80;15.80;96802.00;;;;5044326;28;20277;-82
2022/05/01 07:44:51;;;;;;;18.20;16.23;;;15.30;74.80;15.80;96803.00;;;;5038492;28;20189;-82
2022/05/01 07:47:18;;;;;;;20.00;16.97;;;15.30;74.80;15.80;96800.00;;;;5035776;28;20225;-84
2022/05/01 07:49:47;;;;;;;18.40;15.67;;;15.30;75.70;15.80;96808.00;;;;5037746;28;20697;-84
2022/05/01 07:52:16;;;;;;;17.70;15.67;;;15.30;75.00;15.80;96803.00;;;;5036069;28;20276;-82
2022/05/01 07:54:43;;;;;;;17.23;15.20;;;15.30;74.90;15.90;96799.00;;;;5035874;28;20193;-83
2022/05/01 07:57:10;;;;;;;19.10;15.97;;;15.30;74.90;15.90;96799.00;;;;5033169;28;20272;-82
2022/05/01 07:59:37;;;;;;;17.73;15.37;;;15.30;75.00;15.90;96795.00;;;;5034767;28;20205;-83
2022/05/01 08:02:05;;;;;;;17.23;15.40;;;15.30;75.10;15.90;96799.00;;;;5038442;28;20222;-83
2022/05/01 08:04:32;;;;;;;18.43;15.27;;;15.40;75.20;16.00;96802.00;;;;5030295;28;20292;-83
2022/05/01 08:07:03;;;;;;;19.30;16.07;;;15.40;75.20;16.00;96801.00;;;;5036312;28;20228;-83
2022/05/01 08:09:31;;;;;;;18.43;16.17;;;15.40;75.40;16.10;96811.00;;;;5049192;28;20296;-82
2022/05/01 08:11:59;;;;;;;17.97;15.67;;;15.50;75.50;16.20;96817.00;;;;5049528;28;20287;-83
2022/05/01 08:14:26;;;;;;;17.67;14.83;;;15.50;75.60;16.20;96811.00;;;;5044908;28;20280;-83
2022/05/01 08:16:54;;;;;;;17.87;15.07;;;15.50;75.60;16.20;96808.00;;;;5040014;28;20213;-82
2022/05/01 08:22:07;;;;;;;19.33;15.43;;;15.60;75.00;16.20;96811.00;;;;5030680;28;20268;-83
2022/05/01 08:24:35;;;;;;;17.97;14.80;;;15.60;75.00;16.30;96806.00;;;;5030322;28;20284;-83
2022/05/01 08:27:06;;;;;;;16.27;14.43;;;15.60;75.00;16.30;96810.00;;;;5031418;28;20355;-82
2022/05/01 08:29:34;;;;;;;18.97;15.43;;;15.70;75.00;16.30;96808.00;;;;5038686;28;20290;-84
2022/05/01 08:32:02;;;;;;;17.90;15.27;;;15.70;74.90;16.30;96800.00;;;;5032047;28;20193;-84
2022/05/01 08:34:29;;;;;;;16.80;15.00;;;15.70;75.50;16.30;96808.00;;;;5031177;28;20209;-83
2022/05/01 08:36:56;;;;;;;16.53;14.73;;;15.80;74.90;16.30;96805.00;;;;5031465;28;20764;-83
2022/05/01 08:39:25;;;;;;;17.17;14.57;;;15.80;74.70;16.40;96807.00;;;;5031150;28;20263;-83
2022/05/01 08:41:52;;;;;;;16.20;14.50;;;15.80;74.70;16.40;96805.00;;;;5030465;28;20284;-83
2022/05/01 08:44:30;;;;;;;16.80;15.00;;;15.80;74.60;16.40;96801.00;;;;5031011;28;20287;-83
2022/05/01 08:47:16;;;;;;;16.93;14.73;;;15.80;74.60;16.50;96807.00;;;;5031003;28;20633;-84
2022/05/01 08:49:45;;;;;;;16.30;14.27;;;15.90;75.50;16.50;96804.00;;;;5030817;28;20209;-83
2022/05/01 08:52:14;;;;;;;15.63;13.90;;;15.90;74.60;16.60;96819.00;;;;5031460;28;20203;-83
2022/05/01 08:54:45;;;;;;;18.40;15.57;;;15.90;74.50;16.60;96808.00;;;;5031203;28;20213;-84
2022/05/01 08:57:13;;;;;;;17.60;15.00;;;16.00;74.40;16.60;96806.00;;;;5048290;28;20230;-83
2022/05/01 08:59:41;;;;;;;16.77;14.83;;;16.00;74.30;16.70;96810.00;;;;5050139;28;20255;-83
2022/05/01 09:02:11;;;;;;;19.97;15.67;;;16.00;74.30;16.70;96811.00;;;;5053686;28;20608;-83
2022/05/01 09:04:41;;;;;;;15.67;13.97;;;16.10;74.20;16.70;96809.00;;;;5054854;28;20228;-84
2022/05/01 09:07:08;;;;;;;16.40;14.57;;;16.00;74.00;16.70;96804.00;;;;5054560;28;20225;-84
2022/05/01 09:09:35;;;;;;;16.30;14.37;;;16.10;74.10;16.80;96804.00;;;;5043534;28;20655;-83
2022/05/01 09:14:52;;;;;;;16.53;13.97;;;16.20;74.30;16.90;96802.00;;;;5034736;28;20653;-83
2022/05/01 09:17:21;;;;;;;15.20;13.47;;;16.20;74.10;17.00;96793.00;;;;5034505;28;20285;-83
2022/05/01 09:19:50;;;;;;;15.70;14.07;;;16.30;74.30;17.10;96804.00;;;;5034857;28;20642;-83
2022/05/01 09:22:18;;;;;;;16.07;14.37;;;16.30;74.40;17.10;96799.00;;;;5042127;28;20283;-83
2022/05/01 09:24:45;;;;;;;14.80;13.20;;;16.40;74.20;17.20;96798.00;;;;5055176;28;20192;-83
2022/05/01 09:27:29;;;;;;;15.47;13.67;;;16.50;74.00;17.20;96801.00;;;;5045158;28;20225;-83
2022/05/01 09:30:11;;;;;;;14.43;12.93;;;16.50;73.50;17.20;96802.00;;;;5035153;28;20221;-83
2022/05/01 09:32:40;;;;;;;14.53;13.07;;;16.60;73.60;17.30;96804.00;;;;5035498;28;20213;-83
2022/05/01 09:35:13;;;;;;;14.70;13.10;;;16.50;73.30;17.30;96801.00;;;;5035068;28;20276;-83
2022/05/01 09:37:40;;;;;;;14.97;13.37;;;16.60;73.20;17.30;96808.00;;;;5042200;28;20216;-85
2022/05/01 09:40:09;;;;;;;13.83;12.43;;;16.60;73.80;17.30;96803.00;;;;5054727;28;20645;-84
2022/05/01 09:42:38;;;;;;;14.43;13.00;;;16.70;73.00;17.40;96808.00;;;;5054289;28;20640;-84
2022/05/01 09:45:08;;;;;;;15.40;13.03;;;16.70;72.70;17.40;96804.00;;;;5034285;28;20209;-84
2022/05/01 09:47:37;;;;;;;14.07;12.67;;;16.70;72.40;17.40;96809.00;;;;5034598;28;20304;-85
2022/05/01 09:50:06;;;;;;;14.67;13.07;;;16.70;72.30;17.40;96805.00;;;;5033991;28;20228;-84
2022/05/01 09:52:54;;;;;;;14.07;12.57;;;16.70;72.30;17.40;96811.00;;;;5048129;28;20224;-84
2022/05/01 09:55:21;;;;;;;13.13;11.80;;;16.70;72.10;17.40;96812.00;;;;5037085;28;20658;-84
2022/05/01 09:57:50;;;;;;;13.63;12.23;;;16.80;72.10;17.40;96813.00;;;;5034242;28;20233;-84
2022/05/01 10:00:40;;;;;;;13.83;12.43;;;16.80;72.00;17.40;96810.00;;;;5050766;28;20296;-84
2022/05/01 10:03:31;;;;;;;13.93;12.57;;;16.80;71.90;17.50;96802.00;;;;5049467;28;20224;-84
2022/05/01 10:06:01;;;;;;;13.87;12.37;;;16.80;72.00;17.50;96806.00;;;;5040453;28;20213;-84
2022/05/01 10:08:28;;;;;;;14.70;13.13;;;16.80;72.00;17.60;96800.00;;;;5040419;28;20207;-84
2022/05/01 10:10:59;;;;;;;14.03;12.43;;;16.80;72.10;17.60;96799.00;;;;5048304;28;20256;-83
2022/05/01 10:13:29;;;;;;;13.73;12.17;;;16.90;72.00;17.60;96794.00;;;;5033488;28;20276;-84
2022/05/01 10:15:56;;;;;;;13.27;11.87;;;16.90;72.60;17.70;96788.00;;;;5033743;28;20304;-84
2022/05/01 10:18:25;;;;;;;16.60;13.23;;;16.90;71.80;17.70;96797.00;;;;5046926;28;20231;-83
2022/05/01 10:20:53;;;;;;;13.37;11.97;;;16.90;71.60;17.80;96787.00;;;;5048252;28;20574;-85
2022/05/01 10:23:23;;;;;;;15.43;13.73;;;17.00;72.00;17.80;96787.00;;;;5033812;28;20224;-84
2022/05/01 10:25:56;;;;;;;14.37;12.83;;;17.00;72.20;17.90;96784.00;;;;5033571;28;20601;-83
2022/05/01 10:29:05;;;;;;;15.50;13.10;;;17.10;72.10;18.00;96782.00;;;;5033416;28;20575;-84
2022/05/01 10:32:21;;;;;;;13.83;12.33;;;17.20;71.70;18.20;96783.00;;;;4996038;28;20601;-84
2022/05/01 10:35:17;;;;;;;13.23;11.87;;;17.30;71.60;18.30;96779.00;;;;5027068;28;20185;-83
2022/05/01 10:38:13;;;;;;;13.43;12.03;;;17.40;71.40;18.40;96771.00;;;;5036727;28;20700;-83
2022/05/01 10:40:45;;;;;;;11.97;10.77;;;17.50;71.70;18.60;96779.00;;;;5046805;28;20224;-85
2022/05/01 10:43:57;;;;;;;11.40;10.20;;;17.60;71.30;18.80;96778.00;;;;5038893;28;20182;-82
2022/05/01 10:46:32;;;;;;;12.80;11.07;;;17.80;70.40;19.00;96775.00;;;;5001299;28;20224;-82
2022/05/01 10:49:05;;;;;;;13.13;11.83;;;17.90;71.10;19.20;96780.00;;;;5039545;28;20279;-82
2022/05/01 10:51:52;;;;;;;12.57;11.27;;;18.00;71.10;19.50;96783.00;;;;5040205;28;20221;-83
2022/05/01 10:54:39;;;;;;;12.83;11.43;;;18.20;70.50;19.70;96784.00;;;;5038686;28;20576;-83
2022/05/01 10:57:16;;;;;;;11.60;10.47;;;18.40;70.10;19.80;96784.00;;;;5041679;28;20221;-84
2022/05/01 11:00:06;;;;;;;11.27;10.17;;;18.60;70.40;20.00;96776.00;;;;5039279;28;20325;-83
2022/05/01 11:02:43;;;;;;;10.60;9.60;;;18.80;68.90;20.20;96775.00;;;;5039744;28;20212;-83
2022/05/01 11:05:34;;;;;;;12.27;11.07;;;18.90;69.50;20.30;96782.00;;;;5041740;28;20197;-83
2022/05/01 11:08:03;;;;;;;11.30;10.20;;;19.10;69.70;20.50;96777.00;;;;5042681;28;20216;-85
2022/05/01 11:10:32;;;;;;;10.97;9.87;;;19.20;69.00;20.70;96771.00;;;;5042562;28;20209;-85
2022/05/01 11:12:59;;;;;;;10.70;9.70;;;19.40;68.50;20.80;96772.00;;;;5039305;28;20189;-83
2022/05/01 11:15:28;;;;;;;8.30;7.50;;;19.50;67.60;20.90;96770.00;;;;5038734;28;20235;-84
2022/05/01 11:17:57;;;;;;;8.23;7.53;;;19.70;66.40;21.00;96762.00;;;;5037942;28;20569;-83